Wetterdaten: Woche 19.12.11 - 25.12.11 (KW51)
Datum Zeit Temp. Innen Temp. Aussen UV X Diff Temp. Feuchte Inne Feuchte Auss Sonnenschein Luftdruck Regen ab 0,1 Wind Sonnenschein T Regendauer Windben
19.12.2011 00:00 12,1 C 1,5 C 0,0 UV-I 0,0 C 50 % 89 % 0 % 1013,1 hPa 0,0 l/m 5,3 km/h (1 Bft) 0,00 h 0,00 h 11,3 km/h (2 Bft)
19.12.2011 01:00 12,1 C 1,5 C 0,0 UV-I 0,0 C 50 % 90 % 0 % 1013,7 hPa 0,0 l/m 3,4 km/h (1 Bft) 0,00 h 0,00 h 6,1 km/h (2 Bft)
19.12.2011 02:00 12,2 C 1,5 C 0,0 UV-I 0,0 C 50 % 90 % 0 % 1013,8 hPa 0,0 l/m 2,8 km/h (1 Bft) 0,00 h 0,00 h 6,2 km/h (2 Bft)
19.12.2011 03:00 12,2 C 1,6 C 0,0 UV-I 0,0 C 50 % 90 % 0 % 1013,9 hPa 0,0 l/m 2,6 km/h (1 Bft) 0,00 h 0,00 h 5,2 km/h (1 Bft)
19.12.2011 04:00 12,2 C 1,5 C 0,0 UV-I 0,0 C 50 % 90 % 0 % 1014,1 hPa 0,0 l/m 3,7 km/h (1 Bft) 0,00 h 0,00 h 6,9 km/h (2 Bft)
19.12.2011 05:00 12,2 C 1,5 C 0,0 UV-I 0,0 C 50 % 91 % 0 % 1014,4 hPa 0,0 l/m 5,0 km/h (1 Bft) 0,00 h 0,00 h 9,5 km/h (2 Bft)
19.12.2011 06:00 12,2 C 1,7 C 0,0 UV-I 0,0 C 50 % 92 % 0 % 1014,4 hPa 0,0 l/m 3,7 km/h (1 Bft) 0,00 h 0,00 h 6,7 km/h (2 Bft)
19.12.2011 07:00 12,2 C 1,8 C 0,0 UV-I 0,0 C 50 % 92 % 0 % 1015,4 hPa 0,0 l/m 3,8 km/h (1 Bft) 0,00 h 0,00 h 7,8 km/h (2 Bft)
19.12.2011 08:00 12,2 C 1,9 C 0,0 UV-I 0,0 C 50 % 92 % 0 % 1015,8 hPa 0,0 l/m 4,9 km/h (1 Bft) 0,00 h 0,00 h 10,0 km/h (2 Bft)
19.12.2011 09:00 12,2 C 1,9 C 0,0 UV-I 0,0 C 50 % 92 % 0 % 1016,2 hPa 0,0 l/m 5,4 km/h (1 Bft) 0,00 h 0,00 h 10,1 km/h (2 Bft)
19.12.2011 10:00 12,3 C 2,1 C 0,0 UV-I 0,0 C 50 % 92 % 0 % 1016,7 hPa 0,0 l/m 5,0 km/h (1 Bft) 0,00 h 0,00 h 9,8 km/h (2 Bft)
19.12.2011 11:00 12,3 C 2,4 C 0,0 UV-I 0,1 C 50 % 91 % 4 % 1016,8 hPa 0,0 l/m 4,9 km/h (1 Bft) 0,00 h 0,00 h 8,5 km/h (2 Bft)
19.12.2011 12:00 12,4 C 2,9 C 0,0 UV-I 0,6 C 50 % 91 % 18 % 1017,0 hPa 0,0 l/m 5,6 km/h (1 Bft) 0,00 h 0,00 h 9,7 km/h (2 Bft)
19.12.2011 13:00 12,6 C 3,2 C 0,0 UV-I 0,7 C 50 % 89 % 19 % 1016,9 hPa 0,0 l/m 4,4 km/h (1 Bft) 0,00 h 0,00 h 9,5 km/h (2 Bft)
19.12.2011 14:00 12,8 C 3,6 C 0,0 UV-I 0,5 C 49 % 89 % 13 % 1016,5 hPa 0,0 l/m 5,4 km/h (1 Bft) 0,00 h 0,00 h 8,0 km/h (2 Bft)
19.12.2011 15:00 12,8 C 3,5 C 0,0 UV-I 0,0 C 49 % 87 % 0 % 1016,4 hPa 0,0 l/m 4,9 km/h (1 Bft) 0,00 h 0,00 h 8,8 km/h (2 Bft)
19.12.2011 16:00 12,6 C 3,1 C 0,0 UV-I 0,0 C 49 % 87 % 0 % 1015,9 hPa 0,0 l/m 4,9 km/h (1 Bft) 0,00 h 0,00 h 9,6 km/h (2 Bft)
19.12.2011 17:00 12,4 C 2,6 C 0,0 UV-I 0,0 C 49 % 87 % 0 % 1015,5 hPa 0,0 l/m 3,0 km/h (1 Bft) 0,00 h 0,00 h 7,2 km/h (2 Bft)
19.12.2011 18:00 12,3 C 2,4 C 0,0 UV-I 0,0 C 49 % 87 % 0 % 1014,9 hPa 0,0 l/m 3,4 km/h (1 Bft) 0,00 h 0,00 h 7,8 km/h (2 Bft)
19.12.2011 19:00 12,4 C 2,6 C 0,0 UV-I 0,0 C 49 % 86 % 0 % 1014,5 hPa 0,0 l/m 4,2 km/h (1 Bft) 0,00 h 0,00 h 9,6 km/h (2 Bft)
19.12.2011 20:00 12,2 C 2,9 C 0,0 UV-I 0,0 C 48 % 82 % 0 % 1013,9 hPa 0,0 l/m 7,4 km/h (2 Bft) 0,00 h 0,00 h 13,4 km/h (3 Bft)
19.12.2011 21:00 12,1 C 2,1 C 0,0 UV-I 0,0 C 48 % 83 % 0 % 1013,3 hPa 0,0 l/m 8,3 km/h (2 Bft) 0,00 h 0,57 h 17,7 km/h (3 Bft)
19.12.2011 22:00 12,2 C 1,0 C 0,0 UV-I 0,0 C 48 % 88 % 0 % 1012,1 hPa 0,0 l/m 6,9 km/h (2 Bft) 0,00 h 0,97 h 13,9 km/h (3 Bft)
19.12.2011 23:00 12,3 C 0,8 C 0,0 UV-I 0,0 C 49 % 89 % 0 % 1011,0 hPa 0,0 l/m 5,5 km/h (1 Bft) 0,00 h 0,97 h 8,8 km/h (2 Bft)
20.12.2011 00:00 12,3 C 0,7 C 0,0 UV-I 0,0 C 49 % 91 % 0 % 1009,9 hPa 0,0 l/m 7,2 km/h (2 Bft) 0,00 h 1,00 h 13,7 km/h (3 Bft)
20.12.2011 01:00 12,3 C 0,5 C 0,0 UV-I 0,0 C 49 % 91 % 0 % 1008,7 hPa 0,1 l/m 4,3 km/h (1 Bft) 0,00 h 0,43 h 7,8 km/h (2 Bft)
20.12.2011 02:00 12,3 C 0,5 C 0,0 UV-I 0,0 C 50 % 91 % 0 % 1007,3 hPa 0,1 l/m 2,1 km/h (1 Bft) 0,00 h 0,00 h 3,2 km/h (1 Bft)
20.12.2011 03:00 12,3 C 0,6 C 0,0 UV-I 0,0 C 50 % 92 % 0 % 1006,4 hPa 0,0 l/m 0,0 km/h (0 Bft) 0,00 h 0,00 h 0,0 km/h (0 Bft)
20.12.2011 04:00 12,3 C 0,7 C 0,0 UV-I 0,0 C 50 % 92 % 0 % 1005,7 hPa 0,5 l/m 0,0 km/h (0 Bft) 0,00 h 0,27 h 0,0 km/h (0 Bft)
20.12.2011 05:00 12,2 C 0,8 C 0,0 UV-I 0,0 C 50 % 92 % 0 % 1005,1 hPa 0,6 l/m 0,7 km/h (0 Bft) 0,00 h 0,07 h 1,9 km/h (1 Bft)
20.12.2011 06:00 12,4 C 1,7 C 0,0 UV-I 0,0 C 50 % 93 % 0 % 1004,6 hPa 1,5 l/m 0,4 km/h (0 Bft) 0,00 h 0,00 h 1,7 km/h (1 Bft)
20.12.2011 07:00 12,4 C 2,3 C 0,0 UV-I 0,0 C 51 % 93 % 0 % 1004,5 hPa 1,0 l/m 0,7 km/h (0 Bft) 0,00 h 0,40 h 2,1 km/h (1 Bft)
20.12.2011 08:00 12,4 C 2,8 C 0,0 UV-I 0,0 C 51 % 93 % 0 % 1004,4 hPa 0,7 l/m 0,2 km/h (0 Bft) 0,00 h 0,10 h 0,0 km/h (0 Bft)
20.12.2011 09:00 12,6 C 3,0 C 0,0 UV-I 0,0 C 52 % 93 % 0 % 1005,1 hPa 1,1 l/m 0,5 km/h (0 Bft) 0,00 h 0,43 h 1,4 km/h (1 Bft)
20.12.2011 10:00 12,7 C 4,1 C 0,0 UV-I 0,1 C 52 % 94 % 2 % 1005,4 hPa 1,5 l/m 2,8 km/h (1 Bft) 0,00 h 0,37 h 6,4 km/h (2 Bft)
20.12.2011 11:00 12,8 C 5,2 C 0,0 UV-I 0,1 C 53 % 94 % 3 % 1006,1 hPa 1,9 l/m 3,5 km/h (1 Bft) 0,00 h 0,57 h 7,0 km/h (2 Bft)
20.12.2011 12:00 12,9 C 5,4 C 0,1 UV-I 0,0 C 54 % 93 % 0 % 1006,5 hPa 1,6 l/m 3,5 km/h (1 Bft) 0,00 h 0,33 h 9,3 km/h (2 Bft)
20.12.2011 13:00 13,2 C 5,9 C 0,1 UV-I 0,1 C 54 % 93 % 2 % 1007,0 hPa 1,0 l/m 5,2 km/h (1 Bft) 0,00 h 0,10 h 9,5 km/h (2 Bft)
20.12.2011 14:00 13,2 C 6,0 C 0,0 UV-I 0,0 C 54 % 92 % 0 % 1007,9 hPa 1,4 l/m 6,3 km/h (2 Bft) 0,00 h 0,53 h 15,0 km/h (3 Bft)
20.12.2011 15:00 13,2 C 6,2 C 0,0 UV-I 0,0 C 54 % 92 % 0 % 1008,7 hPa 0,1 l/m 5,2 km/h (1 Bft) 0,00 h 0,00 h 10,2 km/h (2 Bft)
20.12.2011 16:00 13,2 C 6,1 C 0,0 UV-I 0,0 C 54 % 90 % 0 % 1009,6 hPa 0,1 l/m 5,2 km/h (1 Bft) 0,00 h 0,00 h 10,9 km/h (2 Bft)
20.12.2011 17:00 13,1 C 5,4 C 0,0 UV-I 0,0 C 54 % 90 % 0 % 1010,4 hPa 0,0 l/m 6,1 km/h (2 Bft) 0,00 h 0,00 h 11,7 km/h (2 Bft)
20.12.2011 18:00 12,9 C 5,2 C 0,0 UV-I 0,0 C 54 % 90 % 0 % 1011,2 hPa 0,0 l/m 8,0 km/h (2 Bft) 0,00 h 0,00 h 14,0 km/h (3 Bft)
20.12.2011 19:00 12,8 C 5,2 C 0,0 UV-I 0,0 C 54 % 89 % 0 % 1012,1 hPa 0,0 l/m 7,9 km/h (2 Bft) 0,00 h 0,00 h 13,6 km/h (3 Bft)
20.12.2011 20:00 12,8 C 5,1 C 0,0 UV-I 0,0 C 54 % 89 % 0 % 1013,0 hPa 0,0 l/m 6,5 km/h (2 Bft) 0,00 h 0,00 h 13,4 km/h (3 Bft)
20.12.2011 21:00 12,8 C 4,7 C 0,0 UV-I 0,0 C 54 % 89 % 0 % 1013,4 hPa 0,0 l/m 5,4 km/h (1 Bft) 0,00 h 0,00 h 10,5 km/h (2 Bft)
20.12.2011 22:00 12,8 C 4,5 C 0,0 UV-I 0,0 C 54 % 89 % 0 % 1014,1 hPa 0,0 l/m 7,1 km/h (2 Bft) 0,00 h 0,00 h 14,4 km/h (3 Bft)
20.12.2011 23:00 12,8 C 4,3 C 0,0 UV-I 0,0 C 54 % 90 % 0 % 1014,6 hPa 0,0 l/m 4,8 km/h (1 Bft) 0,00 h 0,00 h 8,5 km/h (2 Bft)
21.12.2011 00:00 12,8 C 4,3 C 0,0 UV-I 0,0 C 54 % 90 % 0 % 1014,8 hPa 0,0 l/m 5,7 km/h (1 Bft) 0,00 h 0,00 h 12,4 km/h (3 Bft)
21.12.2011 01:00 12,8 C 4,4 C 0,0 UV-I 0,0 C 54 % 90 % 0 % 1015,0 hPa 0,0 l/m 4,6 km/h (1 Bft) 0,00 h 0,00 h 9,9 km/h (2 Bft)
21.12.2011 02:00 12,8 C 4,4 C 0,0 UV-I 0,0 C 54 % 90 % 0 % 1015,2 hPa 0,0 l/m 4,0 km/h (1 Bft) 0,00 h 0,00 h 7,2 km/h (2 Bft)
21.12.2011 03:00 12,8 C 4,5 C 0,0 UV-I 0,0 C 54 % 90 % 0 % 1015,5 hPa 0,0 l/m 4,0 km/h (1 Bft) 0,00 h 0,00 h 8,7 km/h (2 Bft)
21.12.2011 04:00 12,8 C 4,3 C 0,0 UV-I 0,0 C 54 % 90 % 0 % 1015,6 hPa 0,0 l/m 5,4 km/h (1 Bft) 0,00 h 0,00 h 10,6 km/h (2 Bft)
21.12.2011 05:00 12,8 C 4,0 C 0,0 UV-I 0,0 C 53 % 90 % 0 % 1015,6 hPa 0,0 l/m 2,7 km/h (1 Bft) 0,00 h 0,00 h 5,5 km/h (1 Bft)
21.12.2011 06:00 12,8 C 4,0 C 0,0 UV-I 0,0 C 53 % 90 % 0 % 1015,5 hPa 0,0 l/m 2,1 km/h (1 Bft) 0,00 h 0,00 h 5,9 km/h (2 Bft)
21.12.2011 07:00 12,8 C 4,2 C 0,0 UV-I 0,0 C 53 % 90 % 0 % 1015,7 hPa 0,0 l/m 4,6 km/h (1 Bft) 0,00 h 0,00 h 9,3 km/h (2 Bft)
21.12.2011 08:00 12,8 C 4,4 C 0,0 UV-I 0,0 C 53 % 90 % 0 % 1015,6 hPa 0,0 l/m 2,8 km/h (1 Bft) 0,00 h 0,00 h 5,7 km/h (1 Bft)
21.12.2011 09:00 12,8 C 4,5 C 0,0 UV-I 0,0 C 54 % 90 % 0 % 1016,1 hPa 0,0 l/m 2,9 km/h (1 Bft) 0,00 h 0,00 h 7,9 km/h (2 Bft)
21.12.2011 10:00 12,8 C 4,9 C 0,0 UV-I 0,0 C 54 % 91 % 0 % 1016,3 hPa 0,0 l/m 4,2 km/h (1 Bft) 0,00 h 0,00 h 8,6 km/h (2 Bft)
21.12.2011 11:00 12,8 C 5,2 C 0,0 UV-I 0,1 C 55 % 91 % 2 % 1016,1 hPa 0,0 l/m 5,1 km/h (1 Bft) 0,00 h 0,00 h 8,8 km/h (2 Bft)
21.12.2011 12:00 13,0 C 5,7 C 0,0 UV-I 0,2 C 55 % 90 % 6 % 1016,2 hPa 0,0 l/m 4,2 km/h (1 Bft) 0,00 h 0,00 h 8,4 km/h (2 Bft)
21.12.2011 13:00 13,2 C 6,0 C 0,0 UV-I 0,2 C 54 % 89 % 7 % 1016,1 hPa 0,0 l/m 3,3 km/h (1 Bft) 0,00 h 0,00 h 6,9 km/h (2 Bft)
21.12.2011 14:00 13,2 C 6,1 C 0,0 UV-I 0,1 C 54 % 88 % 2 % 1016,4 hPa 0,0 l/m 3,3 km/h (1 Bft) 0,00 h 0,00 h 7,0 km/h (2 Bft)
21.12.2011 15:00 13,1 C 6,0 C 0,0 UV-I 0,0 C 54 % 88 % 0 % 1016,4 hPa 0,0 l/m 1,6 km/h (1 Bft) 0,00 h 0,00 h 5,1 km/h (1 Bft)
21.12.2011 16:00 13,2 C 5,8 C 0,0 UV-I 0,0 C 55 % 89 % 0 % 1016,6 hPa 0,0 l/m 0,9 km/h (0 Bft) 0,00 h 0,00 h 2,0 km/h (1 Bft)
21.12.2011 17:00 13,3 C 5,5 C 0,0 UV-I 0,0 C 55 % 89 % 0 % 1017,2 hPa 0,0 l/m 0,1 km/h (0 Bft) 0,00 h 0,00 h 1,0 km/h (0 Bft)
21.12.2011 18:00 13,4 C 5,3 C 0,0 UV-I 0,0 C 55 % 90 % 0 % 1017,8 hPa 0,0 l/m 0,4 km/h (0 Bft) 0,00 h 0,00 h 2,0 km/h (1 Bft)
21.12.2011 19:00 13,4 C 5,3 C 0,0 UV-I 0,0 C 55 % 91 % 0 % 1018,0 hPa 0,0 l/m 0,1 km/h (0 Bft) 0,00 h 0,00 h 0,2 km/h (0 Bft)
21.12.2011 20:00 13,4 C 5,3 C 0,0 UV-I 0,0 C 56 % 91 % 0 % 1018,8 hPa 0,0 l/m 0,2 km/h (0 Bft) 0,00 h 0,00 h 1,5 km/h (1 Bft)
21.12.2011 21:00 13,4 C 5,5 C 0,0 UV-I 0,0 C 56 % 91 % 0 % 1019,3 hPa 0,0 l/m 0,4 km/h (0 Bft) 0,00 h 0,00 h 0,6 km/h (0 Bft)
21.12.2011 22:00 13,4 C 5,3 C 0,0 UV-I 0,0 C 56 % 91 % 0 % 1019,3 hPa 0,0 l/m 1,4 km/h (1 Bft) 0,00 h 0,00 h 3,8 km/h (1 Bft)
21.12.2011 23:00 13,4 C 5,2 C 0,0 UV-I 0,0 C 56 % 92 % 0 % 1019,7 hPa 0,0 l/m 0,8 km/h (0 Bft) 0,00 h 0,00 h 2,3 km/h (1 Bft)
22.12.2011 00:00 13,4 C 5,3 C 0,0 UV-I 0,0 C 56 % 92 % 0 % 1020,0 hPa 0,0 l/m 0,2 km/h (0 Bft) 0,00 h 0,00 h 0,5 km/h (0 Bft)
22.12.2011 01:00 13,5 C 5,6 C 0,0 UV-I 0,0 C 56 % 92 % 0 % 1020,3 hPa 0,1 l/m 0,4 km/h (0 Bft) 0,00 h 0,47 h 0,9 km/h (0 Bft)
22.12.2011 02:00 13,6 C 5,6 C 0,0 UV-I 0,0 C 57 % 92 % 0 % 1020,3 hPa 0,2 l/m 1,4 km/h (1 Bft) 0,00 h 0,73 h 5,0 km/h (1 Bft)
22.12.2011 03:00 13,6 C 5,7 C 0,0 UV-I 0,0 C 57 % 93 % 0 % 1020,1 hPa 0,2 l/m 1,7 km/h (1 Bft) 0,00 h 0,43 h 5,8 km/h (2 Bft)
22.12.2011 04:00 13,6 C 5,8 C 0,0 UV-I 0,0 C 57 % 93 % 0 % 1019,8 hPa 0,1 l/m 2,5 km/h (1 Bft) 0,00 h 0,20 h 6,7 km/h (2 Bft)
22.12.2011 05:00 13,6 C 6,0 C 0,0 UV-I 0,0 C 58 % 94 % 0 % 1019,7 hPa 0,2 l/m 1,6 km/h (1 Bft) 0,00 h 0,67 h 3,5 km/h (1 Bft)
22.12.2011 06:00 13,6 C 6,4 C 0,0 UV-I 0,0 C 58 % 94 % 0 % 1019,5 hPa 0,9 l/m 1,2 km/h (1 Bft) 0,00 h 0,80 h 3,6 km/h (1 Bft)
22.12.2011 07:00 13,6 C 7,1 C 0,0 UV-I 0,0 C 60 % 94 % 0 % 1019,3 hPa 1,1 l/m 1,4 km/h (1 Bft) 0,00 h 0,97 h 5,2 km/h (1 Bft)
22.12.2011 08:00 13,6 C 8,0 C 0,0 UV-I 0,0 C 61 % 94 % 0 % 1019,5 hPa 0,5 l/m 4,1 km/h (1 Bft) 0,00 h 0,97 h 9,1 km/h (2 Bft)
22.12.2011 09:00 13,8 C 8,6 C 0,0 UV-I 0,0 C 63 % 94 % 0 % 1019,6 hPa 0,4 l/m 4,9 km/h (1 Bft) 0,00 h 0,83 h 8,6 km/h (2 Bft)
22.12.2011 10:00 13,9 C 9,1 C 0,0 UV-I 0,0 C 63 % 94 % 0 % 1020,0 hPa 0,4 l/m 7,0 km/h (2 Bft) 0,00 h 0,87 h 13,2 km/h (3 Bft)
22.12.2011 11:00 14,0 C 9,5 C 0,0 UV-I 0,0 C 64 % 94 % 0 % 1020,4 hPa 0,1 l/m 7,9 km/h (2 Bft) 0,00 h 0,07 h 14,4 km/h (3 Bft)
22.12.2011 12:00 14,2 C 9,7 C 0,0 UV-I 0,0 C 64 % 95 % 0 % 1020,7 hPa 1,4 l/m 6,0 km/h (2 Bft) 0,00 h 0,90 h 13,1 km/h (3 Bft)
22.12.2011 13:00 14,3 C 9,9 C 0,0 UV-I 0,0 C 64 % 95 % 0 % 1021,1 hPa 0,6 l/m 4,8 km/h (1 Bft) 0,00 h 0,80 h 10,7 km/h (2 Bft)
22.12.2011 14:00 14,4 C 9,9 C 0,0 UV-I 0,0 C 65 % 95 % 0 % 1021,1 hPa 0,1 l/m 4,9 km/h (1 Bft) 0,00 h 0,10 h 9,2 km/h (2 Bft)
22.12.2011 15:00 14,4 C 9,8 C 0,0 UV-I 0,0 C 65 % 95 % 0 % 1021,8 hPa 0,1 l/m 4,2 km/h (1 Bft) 0,00 h 0,27 h 9,1 km/h (2 Bft)
22.12.2011 16:00 14,4 C 9,6 C 0,0 UV-I 0,0 C 65 % 95 % 0 % 1022,3 hPa 0,2 l/m 4,0 km/h (1 Bft) 0,00 h 0,43 h 7,1 km/h (2 Bft)
22.12.2011 17:00 14,5 C 9,5 C 0,0 UV-I 0,0 C 65 % 94 % 0 % 1022,7 hPa 0,1 l/m 4,1 km/h (1 Bft) 0,00 h 0,30 h 9,6 km/h (2 Bft)
22.12.2011 18:00 14,6 C 9,5 C 0,0 UV-I 0,0 C 65 % 94 % 0 % 1022,9 hPa 0,1 l/m 4,8 km/h (1 Bft) 0,00 h 0,07 h 9,8 km/h (2 Bft)
22.12.2011 19:00 14,6 C 9,5 C 0,0 UV-I 0,0 C 65 % 94 % 0 % 1023,7 hPa 0,0 l/m 3,8 km/h (1 Bft) 0,00 h 0,10 h 8,2 km/h (2 Bft)
22.12.2011 20:00 14,7 C 9,4 C 0,0 UV-I 0,0 C 65 % 94 % 0 % 1024,2 hPa 0,1 l/m 4,9 km/h (1 Bft) 0,00 h 0,40 h 10,7 km/h (2 Bft)
22.12.2011 21:00 14,6 C 9,3 C 0,0 UV-I 0,0 C 65 % 94 % 0 % 1024,3 hPa 0,1 l/m 2,7 km/h (1 Bft) 0,00 h 0,23 h 5,6 km/h (1 Bft)
22.12.2011 22:00 14,8 C 9,3 C 0,0 UV-I 0,0 C 65 % 94 % 0 % 1024,1 hPa 0,0 l/m 2,3 km/h (1 Bft) 0,00 h 0,17 h 6,7 km/h (2 Bft)
22.12.2011 23:00 14,8 C 9,3 C 0,0 UV-I 0,0 C 65 % 95 % 0 % 1024,0 hPa 0,2 l/m 3,5 km/h (1 Bft) 0,00 h 0,57 h 7,0 km/h (2 Bft)
23.12.2011 00:00 14,8 C 9,4 C 0,0 UV-I 0,0 C 65 % 95 % 0 % 1024,1 hPa 0,1 l/m 3,5 km/h (1 Bft) 0,00 h 0,27 h 10,1 km/h (2 Bft)
23.12.2011 01:00 14,8 C 9,5 C 0,0 UV-I 0,0 C 65 % 94 % 0 % 1024,1 hPa 0,0 l/m 5,1 km/h (1 Bft) 0,00 h 0,00 h 9,4 km/h (2 Bft)
23.12.2011 02:00 14,8 C 9,5 C 0,0 UV-I 0,0 C 65 % 94 % 0 % 1024,0 hPa 0,0 l/m 4,2 km/h (1 Bft) 0,00 h 0,00 h 7,0 km/h (2 Bft)
23.12.2011 03:00 14,9 C 9,4 C 0,0 UV-I 0,0 C 65 % 94 % 0 % 1023,9 hPa 0,0 l/m 4,2 km/h (1 Bft) 0,00 h 0,00 h 9,2 km/h (2 Bft)
23.12.2011 04:00 14,8 C 9,5 C 0,0 UV-I 0,0 C 65 % 94 % 0 % 1023,5 hPa 0,0 l/m 4,8 km/h (1 Bft) 0,00 h 0,00 h 9,1 km/h (2 Bft)
23.12.2011 05:00 14,8 C 9,4 C 0,0 UV-I 0,0 C 65 % 94 % 0 % 1023,4 hPa 0,0 l/m 4,7 km/h (1 Bft) 0,00 h 0,00 h 9,4 km/h (2 Bft)
23.12.2011 06:00 14,8 C 9,2 C 0,0 UV-I 0,0 C 65 % 94 % 0 % 1022,9 hPa 0,0 l/m 3,9 km/h (1 Bft) 0,00 h 0,00 h 8,1 km/h (2 Bft)
23.12.2011 07:00 14,9 C 9,2 C 0,0 UV-I 0,0 C 64 % 94 % 0 % 1022,6 hPa 0,0 l/m 2,7 km/h (1 Bft) 0,00 h 0,00 h 5,2 km/h (1 Bft)
23.12.2011 08:00 15,0 C 9,1 C 0,0 UV-I 0,0 C 64 % 94 % 0 % 1022,5 hPa 0,0 l/m 3,0 km/h (1 Bft) 0,00 h 0,03 h 6,9 km/h (2 Bft)
23.12.2011 09:00 15,0 C 9,2 C 0,0 UV-I 0,0 C 64 % 94 % 0 % 1022,1 hPa 0,0 l/m 4,6 km/h (1 Bft) 0,00 h 0,00 h 11,9 km/h (2 Bft)
23.12.2011 10:00 15,0 C 9,4 C 0,0 UV-I 0,0 C 64 % 94 % 0 % 1022,0 hPa 0,0 l/m 4,7 km/h (1 Bft) 0,00 h 0,00 h 8,8 km/h (2 Bft)
23.12.2011 11:00 15,1 C 9,6 C 0,0 UV-I 0,0 C 64 % 94 % 0 % 1021,6 hPa 0,0 l/m 4,5 km/h (1 Bft) 0,00 h 0,00 h 8,6 km/h (2 Bft)
23.12.2011 12:00 15,1 C 9,8 C 0,0 UV-I 0,0 C 64 % 93 % 0 % 1020,5 hPa 0,0 l/m 4,7 km/h (1 Bft) 0,00 h 0,00 h 9,0 km/h (2 Bft)
23.12.2011 13:00 15,2 C 10,0 C 0,0 UV-I 0,0 C 64 % 93 % 0 % 1019,8 hPa 0,0 l/m 5,1 km/h (1 Bft) 0,00 h 0,00 h 11,2 km/h (2 Bft)
23.12.2011 14:00 15,1 C 9,9 C 0,0 UV-I 0,0 C 63 % 92 % 0 % 1018,7 hPa 0,0 l/m 4,6 km/h (1 Bft) 0,00 h 0,33 h 9,8 km/h (2 Bft)
23.12.2011 15:00 15,1 C 9,5 C 0,0 UV-I 0,0 C 64 % 92 % 0 % 1018,2 hPa 0,2 l/m 4,1 km/h (1 Bft) 0,00 h 0,17 h 9,2 km/h (2 Bft)
23.12.2011 16:00 15,1 C 9,4 C 0,0 UV-I 0,0 C 63 % 92 % 0 % 1017,3 hPa 0,0 l/m 3,9 km/h (1 Bft) 0,00 h 0,10 h 9,3 km/h (2 Bft)
23.12.2011 17:00 15,2 C 9,2 C 0,0 UV-I 0,0 C 63 % 92 % 0 % 1016,6 hPa 0,1 l/m 3,6 km/h (1 Bft) 0,00 h 0,53 h 6,7 km/h (2 Bft)
23.12.2011 18:00 15,2 C 8,8 C 0,0 UV-I 0,0 C 63 % 92 % 0 % 1015,7 hPa 0,1 l/m 7,3 km/h (2 Bft) 0,00 h 0,03 h 14,9 km/h (3 Bft)
23.12.2011 19:00 15,1 C 8,4 C 0,0 UV-I 0,0 C 61 % 91 % 0 % 1014,7 hPa 0,0 l/m 6,8 km/h (2 Bft) 0,00 h 0,00 h 12,9 km/h (3 Bft)
23.12.2011 20:00 15,0 C 8,3 C 0,0 UV-I 0,0 C 61 % 91 % 0 % 1013,3 hPa 0,0 l/m 5,8 km/h (2 Bft) 0,00 h 0,00 h 10,3 km/h (2 Bft)
23.12.2011 21:00 15,0 C 8,3 C 0,0 UV-I 0,0 C 60 % 89 % 0 % 1012,6 hPa 0,0 l/m 5,3 km/h (1 Bft) 0,00 h 0,00 h 10,9 km/h (2 Bft)
23.12.2011 22:00 15,0 C 8,4 C 0,0 UV-I 0,0 C 59 % 87 % 0 % 1011,4 hPa 0,0 l/m 7,5 km/h (2 Bft) 0,00 h 0,00 h 15,6 km/h (3 Bft)
23.12.2011 23:00 15,0 C 8,3 C 0,0 UV-I 0,0 C 59 % 88 % 0 % 1010,4 hPa 0,1 l/m 8,0 km/h (2 Bft) 0,00 h 0,47 h 15,8 km/h (3 Bft)
24.12.2011 00:00 14,8 C 8,0 C 0,0 UV-I 0,0 C 59 % 90 % 0 % 1009,2 hPa 1,2 l/m 7,8 km/h (2 Bft) 0,00 h 1,00 h 14,1 km/h (3 Bft)
24.12.2011 01:00 14,9 C 8,0 C 0,0 UV-I 0,0 C 60 % 91 % 0 % 1008,5 hPa 0,4 l/m 9,7 km/h (2 Bft) 0,00 h 0,47 h 19,0 km/h (3 Bft)
24.12.2011 02:00 15,0 C 6,8 C 0,0 UV-I 0,0 C 59 % 89 % 0 % 1009,5 hPa 0,0 l/m 17,6 km/h (3 Bft) 0,00 h 0,27 h 28,1 km/h (4 Bft)
24.12.2011 03:00 14,8 C 5,9 C 0,0 UV-I 0,0 C 57 % 90 % 0 % 1011,4 hPa 0,1 l/m 16,0 km/h (3 Bft) 0,00 h 0,80 h 23,5 km/h (4 Bft)
24.12.2011 04:00 14,6 C 5,9 C 0,0 UV-I 0,0 C 57 % 89 % 0 % 1013,3 hPa 0,1 l/m 12,9 km/h (3 Bft) 0,00 h 0,73 h 24,0 km/h (4 Bft)
24.12.2011 05:00 14,3 C 5,9 C 0,0 UV-I 0,0 C 57 % 89 % 0 % 1015,2 hPa 0,0 l/m 11,3 km/h (2 Bft) 0,00 h 0,13 h 20,1 km/h (4 Bft)
24.12.2011 06:00 14,4 C 5,7 C 0,0 UV-I 0,0 C 57 % 89 % 0 % 1017,3 hPa 0,1 l/m 9,5 km/h (2 Bft) 0,00 h 0,57 h 18,2 km/h (3 Bft)
24.12.2011 07:00 14,4 C 5,6 C 0,0 UV-I 0,0 C 57 % 89 % 0 % 1019,5 hPa 0,2 l/m 7,1 km/h (2 Bft) 0,00 h 0,90 h 9,6 km/h (2 Bft)
24.12.2011 08:00 14,4 C 5,2 C 0,0 UV-I 0,0 C 57 % 89 % 0 % 1021,3 hPa 0,0 l/m 7,7 km/h (2 Bft) 0,00 h 0,23 h 14,1 km/h (3 Bft)
24.12.2011 09:00 14,3 C 5,4 C 0,0 UV-I 0,0 C 56 % 88 % 1 % 1022,9 hPa 0,0 l/m 9,5 km/h (2 Bft) 0,00 h 0,00 h 17,9 km/h (3 Bft)
24.12.2011 10:00 14,3 C 5,7 C 0,0 UV-I 0,8 C 55 % 87 % 23 % 1024,8 hPa 0,0 l/m 8,7 km/h (2 Bft) 0,17 h 0,00 h 15,7 km/h (3 Bft)
24.12.2011 11:00 14,4 C 6,3 C 0,1 UV-I 2,0 C 55 % 86 % 56 % 1025,9 hPa 0,0 l/m 7,6 km/h (2 Bft) 0,53 h 0,33 h 15,6 km/h (3 Bft)
24.12.2011 12:00 14,6 C 7,0 C 0,2 UV-I 3,0 C 54 % 84 % 84 % 1026,3 hPa 0,1 l/m 7,8 km/h (2 Bft) 0,80 h 0,00 h 13,7 km/h (3 Bft)
24.12.2011 13:00 14,9 C 7,4 C 0,2 UV-I 2,2 C 54 % 83 % 64 % 1027,1 hPa 0,1 l/m 8,7 km/h (2 Bft) 0,53 h 0,23 h 16,4 km/h (3 Bft)
24.12.2011 14:00 15,2 C 6,7 C 0,0 UV-I 0,2 C 53 % 84 % 4 % 1027,6 hPa 0,5 l/m 5,7 km/h (1 Bft) 0,00 h 0,10 h 11,4 km/h (2 Bft)
24.12.2011 15:00 15,1 C 6,9 C 0,0 UV-I 0,0 C 52 % 82 % 0 % 1028,0 hPa 0,0 l/m 8,2 km/h (2 Bft) 0,00 h 0,00 h 12,7 km/h (3 Bft)
24.12.2011 16:00 14,8 C 6,2 C 0,0 UV-I 0,0 C 52 % 82 % 0 % 1028,5 hPa 0,0 l/m 5,2 km/h (1 Bft) 0,00 h 0,00 h 9,3 km/h (2 Bft)
24.12.2011 17:00 14,4 C 5,2 C 0,0 UV-I 0,0 C 53 % 83 % 0 % 1028,9 hPa 0,0 l/m 1,2 km/h (1 Bft) 0,00 h 0,00 h 2,8 km/h (1 Bft)
24.12.2011 18:00 14,2 C 5,0 C 0,0 UV-I 0,0 C 53 % 84 % 0 % 1029,2 hPa 0,0 l/m 2,3 km/h (1 Bft) 0,00 h 0,00 h 5,2 km/h (1 Bft)
24.12.2011 19:00 14,2 C 4,9 C 0,0 UV-I 0,0 C 53 % 85 % 0 % 1029,3 hPa 0,0 l/m 3,8 km/h (1 Bft) 0,00 h 0,00 h 7,6 km/h (2 Bft)
24.12.2011 20:00 14,0 C 5,3 C 0,0 UV-I 0,0 C 53 % 86 % 0 % 1029,9 hPa 0,0 l/m 5,7 km/h (1 Bft) 0,00 h 0,00 h 10,7 km/h (2 Bft)
24.12.2011 21:00 14,0 C 5,5 C 0,0 UV-I 0,0 C 53 % 86 % 0 % 1029,7 hPa 0,0 l/m 6,6 km/h (2 Bft) 0,00 h 0,00 h 12,5 km/h (3 Bft)
24.12.2011 22:00 14,0 C 5,7 C 0,0 UV-I 0,0 C 53 % 85 % 0 % 1029,7 hPa 0,0 l/m 6,7 km/h (2 Bft) 0,00 h 0,00 h 11,1 km/h (2 Bft)
24.12.2011 23:00 13,9 C 5,7 C 0,0 UV-I 0,0 C 53 % 85 % 0 % 1029,1 hPa 0,0 l/m 6,8 km/h (2 Bft) 0,00 h 0,00 h 11,4 km/h (2 Bft)
25.12.2011 00:00 13,8 C 5,7 C 0,0 UV-I 0,0 C 53 % 84 % 0 % 1028,7 hPa 0,0 l/m 8,8 km/h (2 Bft) 0,00 h 0,00 h 16,9 km/h (3 Bft)
25.12.2011 01:00 13,8 C 5,9 C 0,0 UV-I 0,0 C 53 % 84 % 0 % 1028,4 hPa 0,0 l/m 9,2 km/h (2 Bft) 0,00 h 0,00 h 15,0 km/h (3 Bft)
25.12.2011 02:00 13,8 C 6,1 C 0,0 UV-I 0,0 C 53 % 85 % 0 % 1028,3 hPa 0,0 l/m 8,0 km/h (2 Bft) 0,00 h 0,00 h 12,3 km/h (3 Bft)
25.12.2011 03:00 13,8 C 6,3 C 0,0 UV-I 0,0 C 54 % 85 % 0 % 1028,2 hPa 0,0 l/m 8,5 km/h (2 Bft) 0,00 h 0,00 h 12,5 km/h (3 Bft)
25.12.2011 04:00 13,8 C 6,3 C 0,0 UV-I 0,0 C 54 % 85 % 0 % 1027,9 hPa 0,0 l/m 8,1 km/h (2 Bft) 0,00 h 0,00 h 13,5 km/h (3 Bft)
25.12.2011 05:00 13,8 C 6,4 C 0,0 UV-I 0,0 C 54 % 86 % 0 % 1028,0 hPa 0,0 l/m 7,1 km/h (2 Bft) 0,00 h 0,00 h 11,5 km/h (2 Bft)
25.12.2011 06:00 13,9 C 6,7 C 0,0 UV-I 0,0 C 55 % 87 % 0 % 1027,8 hPa 0,0 l/m 6,6 km/h (2 Bft) 0,00 h 0,33 h 11,4 km/h (2 Bft)
25.12.2011 07:00 13,9 C 6,8 C 0,0 UV-I 0,0 C 55 % 88 % 0 % 1027,9 hPa 0,1 l/m 6,1 km/h (2 Bft) 0,00 h 0,00 h 12,5 km/h (3 Bft)
25.12.2011 08:00 14,0 C 7,0 C 0,0 UV-I 0,0 C 56 % 88 % 0 % 1029,1 hPa 0,0 l/m 6,3 km/h (2 Bft) 0,00 h 0,13 h 11,7 km/h (2 Bft)
25.12.2011 09:00 14,0 C 7,1 C 0,0 UV-I 0,0 C 57 % 90 % 0 % 1029,6 hPa 0,0 l/m 6,2 km/h (2 Bft) 0,00 h 0,00 h 11,5 km/h (2 Bft)
25.12.2011 10:00 13,9 C 7,3 C 0,0 UV-I 0,0 C 57 % 90 % 0 % 1030,1 hPa 0,0 l/m 7,8 km/h (2 Bft) 0,00 h 0,00 h 14,2 km/h (3 Bft)
25.12.2011 11:00 14,0 C 7,5 C 0,0 UV-I 0,0 C 58 % 91 % 0 % 1029,7 hPa 0,0 l/m 8,0 km/h (2 Bft) 0,00 h 0,13 h 15,3 km/h (3 Bft)
25.12.2011 12:00 14,2 C 8,0 C 0,0 UV-I 0,0 C 59 % 91 % 0 % 1029,7 hPa 0,0 l/m 7,8 km/h (2 Bft) 0,00 h 0,00 h 13,6 km/h (3 Bft)
25.12.2011 13:00 14,2 C 8,3 C 0,0 UV-I 0,0 C 59 % 91 % 0 % 1029,7 hPa 0,0 l/m 8,0 km/h (2 Bft) 0,00 h 0,00 h 12,2 km/h (2 Bft)
25.12.2011 14:00 14,3 C 8,5 C 0,0 UV-I 0,0 C 60 % 91 % 0 % 1029,7 hPa 0,0 l/m 7,9 km/h (2 Bft) 0,00 h 0,00 h 14,3 km/h (3 Bft)
25.12.2011 15:00 14,2 C 8,6 C 0,0 UV-I 0,0 C 61 % 91 % 0 % 1030,2 hPa 0,0 l/m 8,0 km/h (2 Bft) 0,00 h 0,00 h 14,3 km/h (3 Bft)
25.12.2011 16:00 14,4 C 8,7 C 0,0 UV-I 0,0 C 61 % 91 % 0 % 1030,9 hPa 0,0 l/m 6,5 km/h (2 Bft) 0,00 h 0,00 h 10,4 km/h (2 Bft)
25.12.2011 17:00 14,4 C 8,9 C 0,0 UV-I 0,0 C 61 % 91 % 0 % 1031,0 hPa 0,0 l/m 7,9 km/h (2 Bft) 0,00 h 0,00 h 15,5 km/h (3 Bft)
25.12.2011 18:00 14,4 C 9,2 C 0,0 UV-I 0,0 C 62 % 90 % 0 % 1031,1 hPa 0,0 l/m 9,2 km/h (2 Bft) 0,00 h 0,00 h 16,8 km/h (3 Bft)
25.12.2011 19:00 14,4 C 9,5 C 0,0 UV-I 0,0 C 61 % 90 % 0 % 1031,6 hPa 0,0 l/m 7,6 km/h (2 Bft) 0,00 h 0,00 h 13,1 km/h (3 Bft)
25.12.2011 20:00 14,4 C 9,7 C 0,0 UV-I 0,0 C 61 % 88 % 0 % 1032,0 hPa 0,0 l/m 7,3 km/h (2 Bft) 0,00 h 0,00 h 12,2 km/h (2 Bft)
25.12.2011 21:00 14,6 C 9,6 C 0,0 UV-I 0,0 C 61 % 87 % 0 % 1032,4 hPa 0,0 l/m 7,3 km/h (2 Bft) 0,00 h 0,00 h 13,7 km/h (3 Bft)
25.12.2011 22:00 14,6 C 9,4 C 0,0 UV-I 0,0 C 61 % 88 % 0 % 1032,6 hPa 0,0 l/m 9,1 km/h (2 Bft) 0,00 h 0,00 h 15,9 km/h (3 Bft)
25.12.2011 23:00 14,7 C 9,5 C 0,0 UV-I 0,0 C 61 % 89 % 0 % 1033,1 hPa 0,0 l/m 8,9 km/h (2 Bft) 0,00 h 0,00 h 14,5 km/h (3 Bft)
Min-Datum _ 19.12.11 20.12.11 19.12.11 19.12.11 19.12.11 19.12.11 19.12.11 20.12.11 - 20.12.11 - - 19.12.11
_ Min-Zeit 00:48 01:02 00:00 00:00 20:58 20:50 00:00 06:04 - 02:42 - - 00:40
Minimum _ 11,9 C 0,5 C 0,0 UV-I 0,0 C 47 % 80 % 0 % 1004,4 hPa - 0,0 km/h (0 Bft) - - 0,0 km/h (0 Bft)
Max-Datum _ 23.12.11 23.12.11 24.12.11 24.12.11 22.12.11 22.12.11 24.12.11 25.12.11 20.12.11 24.12.11 24.12.11 19.12.11 24.12.11
_ Max-Zeit 14:24 13:36 12:28 11:24 13:36 11:38 11:16 23:06 11:18 02:14 10:24 21:26 02:12
Maximum _ 15,3 C 10,1 C 0,3 UV-I 4,1 C 65 % 95 % 100 % 1033,2 hPa 1,9 l/m 23,3 km/h
W-SW (4 Bft)
0,03 h 0,03 h 57,4 km/h
W-SW (7 Bft)
Durchschnitt _ 13,7 C 6,0 C 0,0 UV-I 0,1 C 56 % 90 % 2 % 1019,0 hPa #24,7 l/m 5,1 km/h (1 Bft) #2:02 h #26:56 h 9,8 km/h (2 Bft)
© 2012 W. Hausmann